KIND/IND METAR and TAF weather

Enter ICAO airport designator
Station Type Date Time Source
KIND METAR 2019/05/21 21:03 UTC NOAA

KIND 212103Z 08013KT 10SM -RA FEW034 OVC045 13/11 A3000 RMK AO2 LTG DSNT SE P0000 T01280106


Station Type Date Time Source
KIND Decoded METAR 2019/05/21 21:03 UTC NOAA

INDIANAPOLIS INTERNATIONAL AIRPORT , IN, United States (KIND) 39-43N 86-17W 242M
May 21, 2019 - 05:03 PM EDT / 2019.05.21 2103 UTC
Wind: from the E (080 degrees) at 15 MPH (13 KT):0
Visibility: 10 mile(s):0
Sky conditions: overcast
Weather: light rain; Lightning observed
Precipitation last hour: A trace
Temperature: 55.0 F (12.8 C)
Dew Point: 51.1 F (10.6 C)
Relative Humidity: 86%
Pressure (altimeter): 30 in. Hg (1015 hPa)
ob: KIND 212103Z 08013KT 10SM -RA FEW034 OVC045 13/11 A3000 RMK AO2 LTG DSNT SE P0000 T01280106
cycle: 21

Station Type Date Time Source
KIND TAF 2019/05/21 21:33 UTC NOAA

TAF
AMD KIND 212031Z 2121/2224 10013KT P6SM -RA OVC045
FM212130 09013KT P6SM BKN045
FM220500 12014KT P6SM BKN250 WS020/15040KT
FM221000 14011KT P6SM VCSH SCT030 BKN090
FM221800 21012KT P6SM SCT040

Example: see airport list